createdAt,value
2018-09-09T00:00:59.478Z,2.27
2018-09-09T00:03:27.180Z,2.07
2018-09-09T00:05:54.992Z,1.87
2018-09-09T00:08:22.773Z,1.80
2018-09-09T00:10:50.570Z,2.00
2018-09-09T00:13:18.459Z,1.70
2018-09-09T00:15:46.186Z,1.53
2018-09-09T00:18:13.940Z,1.93
2018-09-09T00:20:41.788Z,3.73
2018-09-09T00:23:09.539Z,1.53
2018-09-09T00:25:37.303Z,1.50
2018-09-09T00:28:05.476Z,1.80
2018-09-09T00:30:33.224Z,1.40
2018-09-09T00:33:00.933Z,1.20
2018-09-09T00:35:28.692Z,1.20
2018-09-09T00:37:56.490Z,1.50
2018-09-09T00:40:24.281Z,1.70
2018-09-09T00:42:52.088Z,2.47
2018-09-09T00:45:19.848Z,1.23
2018-09-09T00:47:47.596Z,1.40
2018-09-09T00:50:21.146Z,1.63
2018-09-09T00:52:54.767Z,1.60
2018-09-09T00:55:22.521Z,1.37
2018-09-09T00:57:50.508Z,1.13
2018-09-09T01:00:24.835Z,1.20
2018-09-09T01:02:53.076Z,2.40
2018-09-09T01:05:20.816Z,2.97
2018-09-09T01:07:48.394Z,1.13
2018-09-09T01:10:16.117Z,1.83
2018-09-09T01:12:43.846Z,1.67
2018-09-09T01:15:11.679Z,1.80
2018-09-09T01:17:39.554Z,1.37
2018-09-09T01:20:07.377Z,2.70
2018-09-09T01:22:35.350Z,1.60
2018-09-09T01:25:03.001Z,0.93
2018-09-09T01:27:30.679Z,1.40
2018-09-09T01:29:58.408Z,3.47
2018-09-09T01:32:26.190Z,1.43
2018-09-09T01:34:53.933Z,1.17
2018-09-09T01:37:21.700Z,1.20
2018-09-09T01:39:49.417Z,1.20
2018-09-09T01:42:17.096Z,1.50
2018-09-09T01:44:44.909Z,1.60
2018-09-09T01:47:12.792Z,1.27
2018-09-09T01:49:40.553Z,1.30
2018-09-09T01:52:08.424Z,1.60
2018-09-09T01:54:36.229Z,1.10
2018-09-09T01:57:03.920Z,2.20
2018-09-09T01:59:31.667Z,4.13
2018-09-09T02:01:59.392Z,1.60
2018-09-09T02:04:27.393Z,2.20
2018-09-09T02:06:55.126Z,1.37
2018-09-09T02:09:22.756Z,2.50
2018-09-09T02:11:50.512Z,1.33
2018-09-09T02:14:18.304Z,1.37
2018-09-09T02:16:46.439Z,5.33
2018-09-09T02:19:14.205Z,1.43
2018-09-09T02:21:42.039Z,2.50
2018-09-09T02:24:09.870Z,3.83
2018-09-09T02:26:37.593Z,7.23
2018-09-09T02:29:05.445Z,1.40
2018-09-09T02:31:33.971Z,1.43
2018-09-09T02:34:01.641Z,5.03
2018-09-09T02:36:29.430Z,2.30
2018-09-09T02:38:57.179Z,0.90
2018-09-09T02:41:25.137Z,1.30
2018-09-09T02:43:52.932Z,4.03
2018-09-09T02:46:20.813Z,1.30
2018-09-09T02:48:48.544Z,2.10
2018-09-09T02:51:16.408Z,1.27
2018-09-09T02:53:44.066Z,1.10
2018-09-09T02:56:11.905Z,3.23
2018-09-09T02:58:39.760Z,1.03
2018-09-09T03:01:07.670Z,3.00
2018-09-09T03:03:35.674Z,2.83
2018-09-09T03:06:03.433Z,1.10
2018-09-09T03:08:31.240Z,2.73
2018-09-09T03:11:04.809Z,6.93
2018-09-09T03:13:32.848Z,1.33
2018-09-09T03:16:00.448Z,3.90
2018-09-09T03:18:28.591Z,1.37
2018-09-09T03:20:56.325Z,1.13
2018-09-09T03:23:24.082Z,1.13
2018-09-09T03:25:51.913Z,1.27
2018-09-09T03:28:19.717Z,1.03
2018-09-09T03:30:47.375Z,1.47
2018-09-09T03:33:15.178Z,1.10
2018-09-09T03:35:42.899Z,1.63
2018-09-09T03:38:10.635Z,1.10
2018-09-09T03:40:38.587Z,1.00
2018-09-09T03:43:06.365Z,1.13
2018-09-09T03:45:34.246Z,1.10
2018-09-09T03:48:02.275Z,0.97
2018-09-09T03:50:30.013Z,1.50
2018-09-09T03:52:57.967Z,1.10
2018-09-09T03:55:25.746Z,1.30
2018-09-09T03:57:53.620Z,1.07
2018-09-09T04:00:21.333Z,1.40
2018-09-09T04:02:49.541Z,1.23
2018-09-09T04:05:17.254Z,1.30
2018-09-09T04:07:44.946Z,1.17
2018-09-09T04:10:12.911Z,4.10
2018-09-09T04:12:40.604Z,2.20
2018-09-09T04:15:12.332Z,1.17
2018-09-09T04:17:40.109Z,1.50
2018-09-09T04:20:08.025Z,1.27
2018-09-09T04:22:36.513Z,1.10
2018-09-09T04:25:04.203Z,1.80
2018-09-09T04:27:32.109Z,1.10
2018-09-09T04:29:59.944Z,1.20
2018-09-09T04:32:27.691Z,6.43
2018-09-09T04:34:55.552Z,2.07
2018-09-09T04:37:23.318Z,1.33
2018-09-09T04:39:51.112Z,1.23
2018-09-09T04:42:18.866Z,1.30
2018-09-09T04:44:46.530Z,1.30
2018-09-09T04:47:14.372Z,1.30
2018-09-09T04:49:42.138Z,2.13
2018-09-09T04:52:09.912Z,2.03
2018-09-09T04:54:37.503Z,1.17
2018-09-09T04:57:05.293Z,3.33
2018-09-09T04:59:33.114Z,1.00
2018-09-09T05:02:00.898Z,1.17
2018-09-09T05:04:28.677Z,1.67
2018-09-09T05:06:56.403Z,1.00
2018-09-09T05:09:24.235Z,2.47
2018-09-09T05:11:53.012Z,1.20
2018-09-09T05:14:21.012Z,2.53
2018-09-09T05:16:48.838Z,1.23
2018-09-09T05:19:16.670Z,1.30
2018-09-09T05:21:44.527Z,1.40
2018-09-09T05:24:12.482Z,4.13
2018-09-09T05:26:47.331Z,1.00
2018-09-09T05:29:15.220Z,2.83
2018-09-09T05:31:42.908Z,1.27
2018-09-09T05:34:10.584Z,1.77
2018-09-09T05:36:38.320Z,1.70
2018-09-09T05:39:09.574Z,1.40
2018-09-09T05:41:37.603Z,1.60
2018-09-09T05:44:05.514Z,3.43
2018-09-09T05:46:33.816Z,8.40
2018-09-09T05:49:01.846Z,1.23
2018-09-09T05:51:30.142Z,4.13
2018-09-09T05:53:58.945Z,2.70
2018-09-09T05:56:27.072Z,1.67
2018-09-09T05:58:54.882Z,1.40
2018-09-09T06:01:22.738Z,2.43
2018-09-09T06:03:50.387Z,1.40
2018-09-09T06:06:18.183Z,1.47
2018-09-09T06:08:46.331Z,1.60
2018-09-09T06:11:14.207Z,1.80
2018-09-09T06:13:42.148Z,1.80
2018-09-09T06:16:09.920Z,2.67
2018-09-09T06:18:37.788Z,2.30
2018-09-09T06:21:05.970Z,4.40
2018-09-09T06:23:33.902Z,1.87
2018-09-09T06:26:01.662Z,2.03
2018-09-09T06:28:29.646Z,1.97
2018-09-09T06:30:57.495Z,2.93
2018-09-09T06:33:25.267Z,4.17
2018-09-09T06:35:53.205Z,2.40
2018-09-09T06:38:20.995Z,2.10
2018-09-09T06:40:48.707Z,1.63
2018-09-09T06:43:16.451Z,2.13
2018-09-09T06:45:44.539Z,2.53
2018-09-09T06:48:12.334Z,3.30
2018-09-09T06:50:40.237Z,2.97
2018-09-09T06:53:08.145Z,2.57
2018-09-09T06:55:35.897Z,2.10
2018-09-09T06:58:03.975Z,1.90
2018-09-09T07:00:31.815Z,2.00
2018-09-09T07:03:00.181Z,1.87
2018-09-09T07:05:28.035Z,1.63
2018-09-09T07:07:56.150Z,1.27
2018-09-09T07:10:23.977Z,1.70
2018-09-09T07:12:51.715Z,1.80
2018-09-09T07:15:20.079Z,1.50
2018-09-09T07:17:48.278Z,3.90
2018-09-09T07:20:16.107Z,1.30
2018-09-09T07:22:44.438Z,1.80
2018-09-09T07:25:12.468Z,4.50
2018-09-09T07:27:40.468Z,1.80
2018-09-09T07:30:08.760Z,1.97
2018-09-09T07:32:36.859Z,2.77
2018-09-09T07:35:05.002Z,2.00
2018-09-09T07:37:32.740Z,1.53
2018-09-09T07:40:00.592Z,2.10
2018-09-09T07:42:29.007Z,3.23
2018-09-09T07:44:57.410Z,4.87
2018-09-09T07:47:25.412Z,2.10
2018-09-09T07:49:53.589Z,1.73
2018-09-09T07:52:21.420Z,1.73
2018-09-09T07:54:49.216Z,1.40
2018-09-09T07:57:18.065Z,5.27
2018-09-09T07:59:45.965Z,1.17
2018-09-09T08:02:14.158Z,1.73
2018-09-09T08:04:42.012Z,2.07
2018-09-09T08:07:09.869Z,1.90
2018-09-09T08:12:20.301Z,1.60
2018-09-09T08:14:48.801Z,1.17
2018-09-09T08:17:16.530Z,1.13
2018-09-09T08:19:44.339Z,1.90
2018-09-09T08:22:12.069Z,2.77
2018-09-09T08:24:40.304Z,1.43
2018-09-09T08:27:08.181Z,0.97
2018-09-09T08:29:36.057Z,1.07
2018-09-09T08:32:03.976Z,2.50
2018-09-09T08:34:32.281Z,2.27
2018-09-09T08:37:00.272Z,1.23
2018-09-09T08:39:29.172Z,1.60
2018-09-09T08:41:57.304Z,2.60
2018-09-09T08:44:25.232Z,3.23
2018-09-09T08:46:53.069Z,1.20
2018-09-09T08:49:20.958Z,1.10
2018-09-09T08:51:49.645Z,1.67
2018-09-09T08:54:17.655Z,1.23
2018-09-09T08:56:45.695Z,1.10
2018-09-09T08:59:13.750Z,5.30
2018-09-09T09:01:41.548Z,1.17
2018-09-09T09:04:09.320Z,1.13
2018-09-09T09:06:37.374Z,1.17
2018-09-09T09:09:07.687Z,1.63
2018-09-09T09:11:36.320Z,1.30
2018-09-09T09:14:04.660Z,1.80
2018-09-09T09:16:32.532Z,1.10
2018-09-09T09:19:00.369Z,1.30
2018-09-09T09:21:29.296Z,1.30
2018-09-09T09:23:57.115Z,1.10
2018-09-09T09:26:25.559Z,3.43
2018-09-09T09:28:53.391Z,3.57
2018-09-09T09:31:21.526Z,1.37
2018-09-09T09:33:49.375Z,3.07
2018-09-09T09:36:17.144Z,1.27
2018-09-09T09:38:45.451Z,1.40
2018-09-09T09:41:14.742Z,1.63
2018-09-09T09:43:42.684Z,2.10
2018-09-09T09:46:11.144Z,5.10
2018-09-09T09:48:39.313Z,1.23
2018-09-09T09:51:08.097Z,1.23
2018-09-09T09:53:36.032Z,4.10
2018-09-09T09:56:03.882Z,1.10
2018-09-09T09:58:32.070Z,0.87
2018-09-09T10:01:01.012Z,1.90
2018-09-09T10:03:29.260Z,1.10
2018-09-09T10:05:57.484Z,3.63
2018-09-09T10:08:25.854Z,4.40
2018-09-09T10:10:54.093Z,1.40
2018-09-09T10:13:22.840Z,1.70
2018-09-09T10:15:50.671Z,1.00
2018-09-09T10:18:18.460Z,0.83
2018-09-09T10:20:46.373Z,1.70
2018-09-09T10:23:14.166Z,2.97
2018-09-09T10:25:42.005Z,0.97
2018-09-09T10:28:09.755Z,1.63
2018-09-09T10:30:37.528Z,0.90
2018-09-09T10:33:05.504Z,1.23
2018-09-09T10:35:33.956Z,3.60
2018-09-09T10:39:06.745Z,1.90
2018-09-09T10:41:35.640Z,2.97
2018-09-09T10:44:05.248Z,1.47
2018-09-09T10:46:34.323Z,3.30
2018-09-09T10:49:02.229Z,1.27
2018-09-09T10:51:30.146Z,1.80
2018-09-09T10:53:58.169Z,1.80
2018-09-09T10:56:26.275Z,1.50
2018-09-09T10:58:54.036Z,2.30
2018-09-09T11:01:22.247Z,2.83
2018-09-09T11:03:50.036Z,1.90
2018-09-09T11:06:17.857Z,1.37
2018-09-09T11:08:46.584Z,1.30
2018-09-09T11:11:14.474Z,2.20
2018-09-09T11:13:42.670Z,1.07
2018-09-09T11:16:10.624Z,1.17
2018-09-09T11:18:38.318Z,2.60
2018-09-09T11:21:06.114Z,1.13
2018-09-09T11:23:34.406Z,1.07
2018-09-09T11:26:03.042Z,0.70
2018-09-09T11:28:31.171Z,0.83
2018-09-09T11:30:59.015Z,4.80
2018-09-09T11:33:26.761Z,3.33
2018-09-09T11:35:54.692Z,1.60
2018-09-09T11:38:22.713Z,2.30
2018-09-09T11:40:50.797Z,2.87
2018-09-09T11:43:18.603Z,1.00
2018-09-09T11:45:46.930Z,1.00
2018-09-09T11:48:14.747Z,1.03
2018-09-09T11:50:42.709Z,2.00
2018-09-09T11:53:10.635Z,1.17
2018-09-09T11:55:38.800Z,1.13
2018-09-09T11:58:07.080Z,1.13
2018-09-09T12:00:35.464Z,1.23
2018-09-09T12:03:04.166Z,1.33
2018-09-09T12:05:31.977Z,1.40
2018-09-09T12:08:00.169Z,1.30
2018-09-09T12:10:28.163Z,1.93
2018-09-09T12:12:56.322Z,2.93
2018-09-09T12:15:24.516Z,1.00
2018-09-09T12:17:52.341Z,1.80
2018-09-09T12:20:20.784Z,2.50
2018-09-09T12:22:48.803Z,1.10
2018-09-09T12:25:16.804Z,4.20
2018-09-09T12:27:45.025Z,2.60
2018-09-09T12:30:13.531Z,1.60
2018-09-09T12:32:41.711Z,3.03
2018-09-09T12:35:09.637Z,1.27
2018-09-09T12:37:37.483Z,4.13
2018-09-09T12:40:05.520Z,5.90
2018-09-09T12:42:34.176Z,1.50
2018-09-09T12:45:07.655Z,1.10
2018-09-09T12:47:41.578Z,2.00
2018-09-09T12:50:09.503Z,2.30
2018-09-09T12:52:38.084Z,4.93
2018-09-09T12:55:06.491Z,1.90
2018-09-09T12:57:34.159Z,1.50
2018-09-09T13:00:02.407Z,1.40
2018-09-09T13:02:30.652Z,1.40
2018-09-09T13:04:58.868Z,1.10
2018-09-09T13:07:29.888Z,1.10
2018-09-09T13:09:58.194Z,1.97
2018-09-09T13:12:30.530Z,1.20
2018-09-09T13:14:59.081Z,1.27
2018-09-09T13:17:27.084Z,1.97
2018-09-09T13:19:55.430Z,4.30
2018-09-09T13:22:23.663Z,2.53
2018-09-09T13:24:51.480Z,1.43
2018-09-09T13:27:19.443Z,6.73
2018-09-09T13:29:48.294Z,1.23
2018-09-09T13:32:16.172Z,1.20
2018-09-09T13:34:44.440Z,1.30
2018-09-09T13:37:12.427Z,1.20
2018-09-09T13:39:40.330Z,1.30
2018-09-09T13:42:08.422Z,1.43
2018-09-09T13:44:38.420Z,4.43
2018-09-09T13:47:06.716Z,1.93
2018-09-09T13:49:34.977Z,1.30
2018-09-09T13:52:03.798Z,5.70
2018-09-09T13:54:31.788Z,1.13
2018-09-09T13:56:59.567Z,4.40
2018-09-09T13:59:27.830Z,1.20
2018-09-09T14:01:56.158Z,1.33
2018-09-09T14:04:24.598Z,1.03
2018-09-09T14:06:52.639Z,3.80
2018-09-09T14:09:20.620Z,1.10
2018-09-09T14:11:48.846Z,1.43
2018-09-09T14:14:17.011Z,3.80
2018-09-09T14:16:45.220Z,1.13
2018-09-09T14:19:14.474Z,1.70
2018-09-09T14:21:42.251Z,1.40
2018-09-09T14:24:10.182Z,1.13
2018-09-09T14:26:38.474Z,1.10
2018-09-09T14:29:06.260Z,1.40
2018-09-09T14:31:35.022Z,6.93
2018-09-09T14:34:03.304Z,2.43
2018-09-09T14:36:31.185Z,2.50
2018-09-09T14:38:59.063Z,0.90
2018-09-09T14:41:27.140Z,1.53
2018-09-09T14:43:55.144Z,1.20
2018-09-09T14:46:23.306Z,2.77
2018-09-09T14:48:51.807Z,1.10
2018-09-09T14:51:19.908Z,1.27
2018-09-09T14:53:47.778Z,1.00
2018-09-09T14:56:15.698Z,3.20
2018-09-09T14:58:43.602Z,4.40
2018-09-09T15:01:11.467Z,0.80
2018-09-09T15:03:39.218Z,4.00
2018-09-09T15:06:07.080Z,1.20
2018-09-09T15:08:35.220Z,1.40
2018-09-09T15:11:03.052Z,3.47
2018-09-09T15:13:31.306Z,3.90
2018-09-09T15:15:58.969Z,0.90
2018-09-09T15:18:26.843Z,2.33
2018-09-09T15:20:54.785Z,1.70
2018-09-09T15:23:22.572Z,0.90
2018-09-09T15:25:50.353Z,1.30
2018-09-09T15:28:18.204Z,1.20
2018-09-09T15:30:46.611Z,1.33
2018-09-09T15:33:14.429Z,1.37
2018-09-09T15:35:42.363Z,1.30
2018-09-09T15:38:10.128Z,1.20
2018-09-09T15:40:37.793Z,1.50
2018-09-09T15:43:05.751Z,1.07
2018-09-09T15:45:34.001Z,1.30
2018-09-09T15:48:01.692Z,2.73
2018-09-09T15:50:29.643Z,3.50
2018-09-09T15:52:58.008Z,1.90
2018-09-09T15:55:26.155Z,1.33
2018-09-09T15:57:53.985Z,1.73
2018-09-09T16:00:22.037Z,8.40
2018-09-09T16:02:49.995Z,1.33
2018-09-09T16:05:18.115Z,1.53
2018-09-09T16:07:46.189Z,2.20
2018-09-09T16:10:14.092Z,1.20
2018-09-09T16:12:42.675Z,1.90
2018-09-09T16:15:10.629Z,2.63
2018-09-09T16:17:38.391Z,1.27
2018-09-09T16:20:06.753Z,1.40
2018-09-09T16:22:36.302Z,1.40
2018-09-09T16:25:04.219Z,2.97
2018-09-09T16:27:33.984Z,1.20
2018-09-09T16:30:01.947Z,1.37
2018-09-09T16:32:30.005Z,1.60
2018-09-09T16:34:58.271Z,5.10
2018-09-09T16:37:25.861Z,1.33
2018-09-09T16:39:53.823Z,1.50
2018-09-09T16:42:21.768Z,1.37
2018-09-09T16:44:49.777Z,1.47
2018-09-09T16:47:18.012Z,1.50
2018-09-09T16:49:46.356Z,1.43
2018-09-09T16:52:14.195Z,1.60
2018-09-09T16:54:41.975Z,2.20
2018-09-09T16:57:09.874Z,3.00
2018-09-09T16:59:37.831Z,2.73
2018-09-09T17:02:05.766Z,5.33
2018-09-09T17:04:33.616Z,4.07
2018-09-09T17:07:02.054Z,9.13
2018-09-09T17:09:29.942Z,2.10
2018-09-09T17:11:57.857Z,2.60
2018-09-09T17:14:26.135Z,1.70
2018-09-09T17:16:53.834Z,1.40
2018-09-09T17:19:21.832Z,1.00
2018-09-09T17:21:49.686Z,3.60
2018-09-09T17:24:17.614Z,1.63
2018-09-09T17:26:45.974Z,1.40
2018-09-09T17:29:14.026Z,2.20
2018-09-09T17:31:42.008Z,36.23
2018-09-09T17:34:09.883Z,115.83
2018-09-09T17:36:40.500Z,72.23
2018-09-09T17:39:11.643Z,76.73
2018-09-09T17:41:40.471Z,4.40
2018-09-09T17:44:09.479Z,3.27
2018-09-09T17:46:37.263Z,27.20
2018-09-09T17:49:05.442Z,15.53
2018-09-09T17:51:34.007Z,3.63
2018-09-09T17:54:02.611Z,3.17
2018-09-09T17:56:30.820Z,3.70
2018-09-09T17:58:59.730Z,3.70
2018-09-09T18:01:27.706Z,1.90
2018-09-09T18:03:55.480Z,2.07
2018-09-09T18:06:23.296Z,3.37
2018-09-09T18:08:51.933Z,2.53
2018-09-09T18:11:19.617Z,2.00
2018-09-09T18:13:47.710Z,3.50
2018-09-09T18:16:15.589Z,2.20
2018-09-09T18:18:44.294Z,1.73
2018-09-09T18:21:12.079Z,1.47
2018-09-09T18:23:39.797Z,4.83
2018-09-09T18:26:08.456Z,2.40
2018-09-09T18:28:36.429Z,3.80
2018-09-09T18:31:04.938Z,4.33
2018-09-09T18:33:32.796Z,3.70
2018-09-09T18:36:00.667Z,5.33
2018-09-09T18:38:28.452Z,7.10
2018-09-09T18:40:57.170Z,7.50
2018-09-09T18:43:24.879Z,26.63
2018-09-09T18:45:52.941Z,20.93
2018-09-09T18:48:20.718Z,20.00
2018-09-09T18:50:48.528Z,21.40
2018-09-09T18:53:16.411Z,15.40
2018-09-09T18:55:44.245Z,25.70
2018-09-09T18:58:12.154Z,31.70
2018-09-09T19:00:40.001Z,27.83
2018-09-09T19:03:08.034Z,21.90
2018-09-09T19:05:36.370Z,8.43
2018-09-09T19:08:04.657Z,6.03
2018-09-09T19:10:32.473Z,5.77
2018-09-09T19:13:00.284Z,3.60
2018-09-09T19:15:28.534Z,4.40
2018-09-09T19:17:57.573Z,4.40
2018-09-09T19:20:25.510Z,2.77
2018-09-09T19:22:54.231Z,2.20
2018-09-09T19:25:22.249Z,4.10
2018-09-09T19:27:50.362Z,8.43
2018-09-09T19:30:18.122Z,7.90
2018-09-09T19:32:46.652Z,17.83
2018-09-09T19:35:14.543Z,21.17
2018-09-09T19:37:42.547Z,45.40
2018-09-09T19:40:10.293Z,30.97
2018-09-09T19:42:38.261Z,18.33
2018-09-09T19:45:07.136Z,9.73
2018-09-09T19:47:35.207Z,4.40
2018-09-09T19:50:03.969Z,13.30
2018-09-09T19:52:32.576Z,5.57
2018-09-09T19:55:02.806Z,8.17
2018-09-09T19:57:45.413Z,17.30
2018-09-09T20:00:13.406Z,16.60
2018-09-09T20:02:41.502Z,23.33
2018-09-09T20:05:09.679Z,13.53
2018-09-09T20:07:38.060Z,11.27
2018-09-09T20:10:06.723Z,13.10
2018-09-09T20:12:36.364Z,8.67
2018-09-09T20:15:05.643Z,10.77
2018-09-09T20:17:33.528Z,5.33
2018-09-09T20:20:03.390Z,9.03
2018-09-09T20:22:32.253Z,11.80
2018-09-09T20:25:00.176Z,9.53
2018-09-09T20:27:28.360Z,8.83
2018-09-09T20:29:56.598Z,12.13
2018-09-09T20:32:24.908Z,5.73
2018-09-09T20:34:53.111Z,5.87
2018-09-09T20:37:21.062Z,8.13
2018-09-09T20:39:49.133Z,6.70
2018-09-09T20:42:17.183Z,12.13
2018-09-09T20:44:45.097Z,10.57
2018-09-09T20:47:13.113Z,13.03
2018-09-09T20:49:41.105Z,11.63
2018-09-09T20:52:09.066Z,9.00
2018-09-09T20:54:37.802Z,10.63
2018-09-09T20:57:05.670Z,7.07
2018-09-09T20:59:33.447Z,6.17
2018-09-09T21:02:01.309Z,5.13
2018-09-09T21:04:28.949Z,6.43
2018-09-09T21:06:56.894Z,5.20
2018-09-09T21:09:24.864Z,4.80
2018-09-09T21:11:52.594Z,3.00
2018-09-09T21:14:20.802Z,3.50
2018-09-09T21:16:48.920Z,2.30
2018-09-09T21:19:16.749Z,2.57
2018-09-09T21:21:44.498Z,2.80
2018-09-09T21:24:12.331Z,2.53
2018-09-09T21:26:40.103Z,13.10
2018-09-09T21:29:08.178Z,2.03
2018-09-09T21:31:36.796Z,2.03
2018-09-09T21:34:04.611Z,4.33
2018-09-09T21:36:32.569Z,4.60
2018-09-09T21:39:00.382Z,4.90
2018-09-09T21:41:28.606Z,7.43
2018-09-09T21:43:56.407Z,4.37
2018-09-09T21:46:24.090Z,3.87
2018-09-09T21:48:52.086Z,5.57
2018-09-09T21:51:20.019Z,13.30
2018-09-09T21:53:47.755Z,61.60
2018-09-09T21:56:15.783Z,15.53
2018-09-09T21:58:43.587Z,9.77
2018-09-09T22:01:17.156Z,5.27
2018-09-09T22:03:45.000Z,3.10
2018-09-09T22:06:13.408Z,2.47
2018-09-09T22:08:41.380Z,6.23
2018-09-09T22:11:09.317Z,2.50
2018-09-09T22:13:37.099Z,2.03
2018-09-09T22:16:04.830Z,2.10
2018-09-09T22:18:32.550Z,2.20
2018-09-09T22:21:00.300Z,4.33
2018-09-09T22:23:28.121Z,1.70
2018-09-09T22:25:55.751Z,1.90
2018-09-09T22:28:23.570Z,5.43
2018-09-09T22:30:51.498Z,1.87
2018-09-09T22:33:19.185Z,2.13
2018-09-09T22:35:46.942Z,2.30
2018-09-09T22:38:14.634Z,2.03
2018-09-09T22:40:42.658Z,1.70
2018-09-09T22:43:11.193Z,1.80
2018-09-09T22:45:40.387Z,1.37
2018-09-09T22:48:08.314Z,1.80
2018-09-09T22:50:36.217Z,3.33
2018-09-09T22:53:04.060Z,2.87
2018-09-09T22:55:31.891Z,2.40
2018-09-09T22:57:59.760Z,5.00
2018-09-09T23:00:27.453Z,1.70
2018-09-09T23:02:55.752Z,2.00
2018-09-09T23:05:24.469Z,1.40
2018-09-09T23:07:52.314Z,5.93
2018-09-09T23:10:20.591Z,2.03
2018-09-09T23:12:48.538Z,2.10
2018-09-09T23:15:19.266Z,1.53
2018-09-09T23:17:47.221Z,1.57
2018-09-09T23:20:15.018Z,1.70
2018-09-09T23:22:42.996Z,2.10
2018-09-09T23:25:10.727Z,1.83
2018-09-09T23:27:38.458Z,1.33
2018-09-09T23:30:06.452Z,1.47
2018-09-09T23:32:35.080Z,1.40
2018-09-09T23:35:02.906Z,1.40
2018-09-09T23:37:30.707Z,1.67
2018-09-09T23:39:58.570Z,1.70
2018-09-09T23:42:26.338Z,1.60
2018-09-09T23:44:54.029Z,1.87
2018-09-09T23:47:21.844Z,1.93
2018-09-09T23:49:49.488Z,1.60
2018-09-09T23:52:17.490Z,1.90
2018-09-09T23:54:45.267Z,1.97
2018-09-09T23:57:12.939Z,1.67
2018-09-09T23:59:40.647Z,1.60
